Time;durP1;ratioP1;P1;durP2;ratioP2;P2;SDS_P1;SDS_P2;PMS_P1;PMS_P2;Temp;Humidity;BMP_temperature;BMP_pressure;BME280_temperature;BME280_humidity;BME280_pressure;Samples;Min_cycle;Max_cycle;Signal;HPM_P1;HPM_P2
2023/05/01 00:01:27;;;;;;;1.40;1.30;;;;;;;;;;5043473;28;20145;-65
2023/05/01 00:03:53;;;;;;;2.33;1.80;;;;;;;;;;5041702;28;20048;-65
2023/05/01 00:06:19;;;;;;;3.03;1.60;;;;;;;;;;5044208;28;20051;-65
2023/05/01 00:08:45;;;;;;;1.48;1.38;;;;;;;;;;5025540;28;20049;-66
2023/05/01 00:11:11;;;;;;;1.30;1.10;;;;;;;;;;5024449;28;20056;-65
2023/05/01 00:13:37;;;;;;;1.65;1.05;;;;;;;;;;5024833;28;20614;-65
2023/05/01 00:16:10;;;;;;;2.13;1.65;;;;;;;;;;5042298;28;20080;-65
2023/05/01 00:18:36;;;;;;;2.75;1.98;;;;;;;;;;5042319;28;20056;-65
2023/05/01 00:21:02;;;;;;;2.75;1.70;;;;;;;;;;5042862;28;20056;-66
2023/05/01 00:23:28;;;;;;;1.70;1.60;;;;;;;;;;5043009;28;20045;-65
2023/05/01 00:25:54;;;;;;;3.40;2.03;;;;;;;;;;5025273;28;20075;-65
2023/05/01 00:28:20;;;;;;;2.28;1.45;;;;;;;;;;5025950;28;20064;-66
2023/05/01 00:30:46;;;;;;;2.50;1.50;;;;;;;;;;5024692;28;20486;-65
2023/05/01 00:33:12;;;;;;;1.55;1.45;;;;;;;;;;5024499;28;20655;-65
2023/05/01 00:35:38;;;;;;;1.40;1.30;;;;;;;;;;5042865;28;20037;-65
2023/05/01 00:38:04;;;;;;;1.70;1.25;;;;;;;;;;5042038;28;20495;-65
2023/05/01 00:40:31;;;;;;;1.55;1.40;;;;;;;;;;5043047;28;20052;-65
2023/05/01 00:42:57;;;;;;;1.73;1.23;;;;;;;;;;5024275;28;21553;-65
2023/05/01 00:45:23;;;;;;;0.90;0.90;;;;;;;;;;5042536;28;20334;-67
2023/05/01 00:47:49;;;;;;;1.40;1.10;;;;;;;;;;5041580;28;20041;-65
2023/05/01 00:50:15;;;;;;;1.00;0.85;;;;;;;;;;5042952;28;20032;-66
2023/05/01 00:52:41;;;;;;;0.95;0.95;;;;;;;;;;5023931;28;20567;-66
2023/05/01 00:55:07;;;;;;;1.10;0.90;;;;;;;;;;5042782;28;20057;-66
2023/05/01 00:57:33;;;;;;;1.23;0.90;;;;;;;;;;5043579;28;20041;-66
2023/05/01 01:00:00;;;;;;;0.60;0.60;;;;;;;;;;5041870;28;20059;-66
2023/05/01 01:02:26;;;;;;;0.82;0.68;;;;;;;;;;5043085;28;20072;-66
2023/05/01 01:04:52;;;;;;;1.00;0.90;;;;;;;;;;5041593;28;20041;-66
2023/05/01 01:07:27;;;;;;;1.20;0.93;;;;;;;;;;5024035;28;20076;-66
2023/05/01 01:10:12;;;;;;;0.93;0.82;;;;;;;;;;5023851;28;20048;-66
2023/05/01 01:12:56;;;;;;;0.93;0.80;;;;;;;;;;5042952;28;20060;-66
2023/05/01 01:15:35;;;;;;;0.80;0.77;;;;;;;;;;5042231;28;20535;-65
2023/05/01 01:18:18;;;;;;;0.80;0.80;;;;;;;;;;5042272;28;20550;-65
2023/05/01 01:20:58;;;;;;;0.93;0.80;;;;;;;;;;5039163;28;20052;-65
2023/05/01 01:23:42;;;;;;;0.65;0.65;;;;;;;;;;5042772;28;20044;-65
2023/05/01 01:26:11;;;;;;;0.98;0.88;;;;;;;;;;5042091;28;20063;-65
2023/05/01 01:28:43;;;;;;;1.05;0.90;;;;;;;;;;5042392;28;20037;-65
2023/05/01 01:31:12;;;;;;;1.55;1.45;;;;;;;;;;5042436;28;20190;-65
2023/05/01 01:33:55;;;;;;;0.85;0.85;;;;;;;;;;5023098;28;20052;-65
2023/05/01 01:36:41;;;;;;;2.97;0.90;;;;;;;;;;5045671;28;20045;-65
2023/05/01 01:39:07;;;;;;;1.13;1.00;;;;;;;;;;5027577;28;20056;-65
2023/05/01 01:41:34;;;;;;;1.58;1.10;;;;;;;;;;5046890;28;20053;-66
2023/05/01 01:44:03;;;;;;;0.80;0.80;;;;;;;;;;5027535;28;20076;-65
2023/05/01 01:46:31;;;;;;;1.05;0.95;;;;;;;;;;5027599;28;20118;-65
2023/05/01 01:48:57;;;;;;;1.08;0.98;;;;;;;;;;5043769;28;20473;-65
2023/05/01 01:51:25;;;;;;;0.82;0.80;;;;;;;;;;5045908;28;20364;-65
2023/05/01 01:53:53;;;;;;;1.00;0.77;;;;;;;;;;5045463;28;20124;-65
2023/05/01 01:56:20;;;;;;;1.40;1.05;;;;;;;;;;5045267;28;20068;-65
2023/05/01 01:58:46;;;;;;;1.10;0.90;;;;;;;;;;5042668;28;20190;-65
2023/05/01 02:01:13;;;;;;;1.20;0.90;;;;;;;;;;5046223;28;20051;-66
2023/05/01 02:03:40;;;;;;;2.15;0.90;;;;;;;;;;5045035;28;20047;-65
2023/05/01 02:06:07;;;;;;;1.13;1.02;;;;;;;;;;5045335;28;20047;-65
2023/05/01 02:08:34;;;;;;;1.13;0.80;;;;;;;;;;5028463;28;20090;-65
2023/05/01 02:11:01;;;;;;;1.73;1.10;;;;;;;;;;5044864;28;20131;-65
2023/05/01 02:13:28;;;;;;;1.10;0.95;;;;;;;;;;5027669;28;20051;-66
2023/05/01 02:15:55;;;;;;;1.70;1.30;;;;;;;;;;5044867;28;20045;-65
2023/05/01 02:18:22;;;;;;;1.13;0.88;;;;;;;;;;5026984;28;20037;-65
2023/05/01 02:20:48;;;;;;;1.15;1.00;;;;;;;;;;5027082;28;20128;-65
2023/05/01 02:23:14;;;;;;;1.00;0.90;;;;;;;;;;5044770;28;20365;-65
2023/05/01 02:25:41;;;;;;;1.08;0.98;;;;;;;;;;5044768;28;20049;-65
2023/05/01 02:28:09;;;;;;;0.82;0.77;;;;;;;;;;5044058;28;20048;-65
2023/05/01 02:30:36;;;;;;;0.80;0.80;;;;;;;;;;5045266;28;20037;-65
2023/05/01 02:33:03;;;;;;;1.02;0.93;;;;;;;;;;5026123;28;20049;-65
2023/05/01 02:35:29;;;;;;;1.25;0.80;;;;;;;;;;5027872;28;20406;-65
2023/05/01 02:37:55;;;;;;;1.85;0.95;;;;;;;;;;5025477;28;20530;-65
2023/05/01 02:40:21;;;;;;;1.25;1.10;;;;;;;;;;5027407;28;20064;-65
2023/05/01 02:42:47;;;;;;;0.93;0.88;;;;;;;;;;5046347;28;20067;-65
2023/05/01 02:45:20;;;;;;;0.73;0.73;;;;;;;;;;5044556;28;20049;-65
2023/05/01 02:47:49;;;;;;;0.85;0.85;;;;;;;;;;5045131;28;20135;-66
2023/05/01 02:50:15;;;;;;;0.80;0.80;;;;;;;;;;5045990;28;20688;-65
2023/05/01 02:52:42;;;;;;;0.80;0.80;;;;;;;;;;5028797;28;20053;-66
2023/05/01 02:55:08;;;;;;;0.80;0.80;;;;;;;;;;5027270;28;21121;-65
2023/05/01 02:57:34;;;;;;;1.20;1.10;;;;;;;;;;5045883;28;20037;-65
2023/05/01 03:00:00;;;;;;;1.20;1.10;;;;;;;;;;5044841;28;20648;-65
2023/05/01 03:02:26;;;;;;;1.20;1.10;;;;;;;;;;5045908;28;20037;-65
2023/05/01 03:04:52;;;;;;;1.65;1.10;;;;;;;;;;5027572;28;20767;-65
2023/05/01 03:07:18;;;;;;;1.05;0.95;;;;;;;;;;5044877;28;20129;-65
2023/05/01 03:09:44;;;;;;;1.15;1.05;;;;;;;;;;5045768;28;20048;-65
2023/05/01 03:12:10;;;;;;;0.90;0.90;;;;;;;;;;5044995;28;20091;-65
2023/05/01 03:14:37;;;;;;;0.88;0.77;;;;;;;;;;5044651;28;20052;-65
2023/05/01 03:17:03;;;;;;;0.85;0.82;;;;;;;;;;5045626;28;20040;-65
2023/05/01 03:19:29;;;;;;;0.85;0.85;;;;;;;;;;5045511;28;20036;-65
2023/05/01 03:21:55;;;;;;;0.75;0.70;;;;;;;;;;5044073;28;20049;-65
2023/05/01 03:24:21;;;;;;;0.95;0.85;;;;;;;;;;5045542;28;20094;-65
2023/05/01 03:26:47;;;;;;;0.80;0.80;;;;;;;;;;5044940;28;20041;-65
2023/05/01 03:29:13;;;;;;;0.98;0.85;;;;;;;;;;5026705;28;20049;-65
2023/05/01 03:31:39;;;;;;;1.02;0.85;;;;;;;;;;5045302;28;20130;-65
2023/05/01 03:34:06;;;;;;;1.40;1.17;;;;;;;;;;5026958;28;20059;-65
2023/05/01 03:36:32;;;;;;;0.98;0.90;;;;;;;;;;5045417;28;20041;-65
2023/05/01 03:38:58;;;;;;;1.10;0.90;;;;;;;;;;5027219;28;20060;-65
2023/05/01 03:41:25;;;;;;;1.30;0.98;;;;;;;;;;5026613;28;20067;-65
2023/05/01 03:43:51;;;;;;;1.40;1.30;;;;;;;;;;5044318;28;20051;-65
2023/05/01 03:46:17;;;;;;;1.25;1.00;;;;;;;;;;5044247;28;20063;-65
2023/05/01 03:48:43;;;;;;;1.13;1.00;;;;;;;;;;5026554;28;20371;-65
2023/05/01 03:51:09;;;;;;;1.52;1.25;;;;;;;;;;5026615;28;20767;-65
2023/05/01 03:53:35;;;;;;;1.10;1.00;;;;;;;;;;5027208;28;20068;-65
2023/05/01 03:56:03;;;;;;;1.38;1.27;;;;;;;;;;5026023;28;20486;-65
2023/05/01 03:58:29;;;;;;;1.25;1.15;;;;;;;;;;5026139;28;20068;-65
2023/05/01 04:00:59;;;;;;;1.50;1.00;;;;;;;;;;5044569;28;20450;-65
2023/05/01 04:03:25;;;;;;;1.27;1.17;;;;;;;;;;5043577;28;20070;-65
2023/05/01 04:05:51;;;;;;;1.27;1.10;;;;;;;;;;5044353;28;20037;-65
2023/05/01 04:08:17;;;;;;;1.52;1.13;;;;;;;;;;5026776;28;20048;-65
2023/05/01 04:10:44;;;;;;;1.27;1.17;;;;;;;;;;5025263;28;20674;-65
2023/05/01 04:13:10;;;;;;;1.30;1.15;;;;;;;;;;5044279;28;20679;-65
2023/05/01 04:15:37;;;;;;;1.95;1.05;;;;;;;;;;5042014;28;20049;-66
2023/05/01 04:18:03;;;;;;;1.40;1.30;;;;;;;;;;5043840;28;20170;-65
2023/05/01 04:20:30;;;;;;;1.65;1.40;;;;;;;;;;5026937;28;20119;-65
2023/05/01 04:22:56;;;;;;;1.70;1.40;;;;;;;;;;5043870;28;20501;-65
2023/05/01 04:25:22;;;;;;;1.40;1.30;;;;;;;;;;5042682;28;20467;-65
2023/05/01 04:27:48;;;;;;;1.35;1.20;;;;;;;;;;5044280;28;20043;-65
2023/05/01 04:30:14;;;;;;;2.13;1.50;;;;;;;;;;5044312;28;20051;-65
2023/05/01 04:32:40;;;;;;;1.20;1.10;;;;;;;;;;5043746;28;20076;-65
2023/05/01 04:35:06;;;;;;;1.30;1.10;;;;;;;;;;5043925;28;20048;-65
2023/05/01 04:37:34;;;;;;;1.00;1.00;;;;;;;;;;5027030;28;20037;-65
2023/05/01 04:40:00;;;;;;;1.20;1.10;;;;;;;;;;5043713;28;20099;-65
2023/05/01 04:42:30;;;;;;;2.22;1.83;;;;;;;;;;5044419;28;20482;-65
2023/05/01 04:44:56;;;;;;;1.20;1.08;;;;;;;;;;5043127;28;20058;-65
2023/05/01 04:47:22;;;;;;;1.70;1.15;;;;;;;;;;5042937;28;20072;-65
2023/05/01 04:49:48;;;;;;;1.15;1.05;;;;;;;;;;5026003;28;20071;-65
2023/05/01 04:52:14;;;;;;;1.30;1.20;;;;;;;;;;5025452;28;20044;-65
2023/05/01 04:54:40;;;;;;;1.77;1.40;;;;;;;;;;5044172;28;20053;-65
2023/05/01 04:57:06;;;;;;;1.48;1.38;;;;;;;;;;5043798;28;20045;-65
2023/05/01 04:59:32;;;;;;;0.95;0.90;;;;;;;;;;5046223;28;20041;-65
2023/05/01 05:01:58;;;;;;;1.80;1.10;;;;;;;;;;5043618;28;20094;-65
2023/05/01 05:04:24;;;;;;;1.23;1.13;;;;;;;;;;5026317;28;20056;-65
2023/05/01 05:06:50;;;;;;;1.58;1.20;;;;;;;;;;5025009;28;20051;-65
2023/05/01 05:09:16;;;;;;;0.80;0.80;;;;;;;;;;5044972;28;20041;-65
2023/05/01 05:11:43;;;;;;;1.60;0.77;;;;;;;;;;5030211;28;20136;-65
2023/05/01 05:14:09;;;;;;;1.08;0.93;;;;;;;;;;5028930;28;20185;-65
2023/05/01 05:16:35;;;;;;;1.60;1.25;;;;;;;;;;5048213;28;20044;-65
2023/05/01 05:19:02;;;;;;;1.73;1.30;;;;;;;;;;5029941;28;20094;-66
2023/05/01 05:21:28;;;;;;;0.70;0.70;;;;;;;;;;5047353;28;20175;-65
2023/05/01 05:23:54;;;;;;;0.98;0.88;;;;;;;;;;5046899;28;20079;-65
2023/05/01 05:26:21;;;;;;;0.80;0.75;;;;;;;;;;5029932;28;20045;-65
2023/05/01 05:28:47;;;;;;;2.42;0.90;;;;;;;;;;5028668;28;20045;-65
2023/05/01 05:31:13;;;;;;;1.42;1.33;;;;;;;;;;5029561;28;20491;-65
2023/05/01 05:33:39;;;;;;;1.77;1.00;;;;;;;;;;5029713;28;20044;-65
2023/05/01 05:36:05;;;;;;;1.10;1.00;;;;;;;;;;5028779;28;20056;-65
2023/05/01 05:38:31;;;;;;;1.38;1.15;;;;;;;;;;5029768;28;20045;-65
2023/05/01 05:40:59;;;;;;;2.10;1.73;;;;;;;;;;5046294;28;20049;-65
2023/05/01 05:43:25;;;;;;;2.20;1.80;;;;;;;;;;5028398;28;20045;-65
2023/05/01 05:45:55;;;;;;;2.00;1.80;;;;;;;;;;5028285;28;20068;-66
2023/05/01 05:48:21;;;;;;;1.50;1.40;;;;;;;;;;5028996;28;20438;-65
2023/05/01 05:50:49;;;;;;;1.48;1.20;;;;;;;;;;5045601;28;20041;-65
2023/05/01 05:53:15;;;;;;;1.63;1.42;;;;;;;;;;5045934;28;20091;-65
2023/05/01 05:55:42;;;;;;;1.90;1.40;;;;;;;;;;5046994;28;20121;-65
2023/05/01 05:58:08;;;;;;;1.63;1.52;;;;;;;;;;5028830;28;20128;-65
2023/05/01 06:00:34;;;;;;;2.15;1.50;;;;;;;;;;5029839;28;20052;-65
2023/05/01 06:03:01;;;;;;;1.60;1.50;;;;;;;;;;5044880;28;20045;-65
2023/05/01 06:05:27;;;;;;;2.78;2.58;;;;;;;;;;5046998;28;20048;-65
2023/05/01 06:07:53;;;;;;;3.08;2.58;;;;;;;;;;5029533;28;20126;-66
2023/05/01 06:10:19;;;;;;;1.95;1.85;;;;;;;;;;5030564;28;20049;-65
2023/05/01 06:12:46;;;;;;;1.85;1.65;;;;;;;;;;5046893;28;20048;-66
2023/05/01 06:15:15;;;;;;;2.53;2.20;;;;;;;;;;5046662;28;20123;-66
2023/05/01 06:17:41;;;;;;;2.20;1.73;;;;;;;;;;5046259;28;20037;-66
2023/05/01 06:20:08;;;;;;;1.88;1.48;;;;;;;;;;5028312;28;20044;-67
2023/05/01 06:22:34;;;;;;;1.40;1.30;;;;;;;;;;5045915;28;20064;-66
2023/05/01 06:25:00;;;;;;;2.63;1.60;;;;;;;;;;5027518;28;20767;-67
2023/05/01 06:27:26;;;;;;;3.83;2.35;;;;;;;;;;5045832;28;20087;-67
2023/05/01 06:29:52;;;;;;;4.55;3.28;;;;;;;;;;5028329;28;20045;-67
2023/05/01 06:32:18;;;;;;;1.98;1.80;;;;;;;;;;5027767;28;20048;-66
2023/05/01 06:34:44;;;;;;;3.70;2.13;;;;;;;;;;5027834;28;20279;-67
2023/05/01 06:37:10;;;;;;;2.70;1.80;;;;;;;;;;5046162;28;20171;-66
2023/05/01 06:39:36;;;;;;;2.00;1.25;;;;;;;;;;5028045;28;20102;-66
2023/05/01 06:42:03;;;;;;;1.85;1.35;;;;;;;;;;5028660;28;20057;-66
2023/05/01 06:44:29;;;;;;;1.88;1.52;;;;;;;;;;5021481;28;20106;-66
2023/05/01 06:46:55;;;;;;;2.03;1.63;;;;;;;;;;5024707;28;20065;-66
2023/05/01 06:49:22;;;;;;;1.98;1.40;;;;;;;;;;5044958;28;20075;-66
2023/05/01 06:51:48;;;;;;;1.60;1.48;;;;;;;;;;5045191;28;20048;-67
2023/05/01 06:54:14;;;;;;;2.00;1.50;;;;;;;;;;5027612;28;20055;-66
2023/05/01 06:56:40;;;;;;;2.03;1.90;;;;;;;;;;5027797;28;20127;-66
2023/05/01 06:59:06;;;;;;;2.72;1.70;;;;;;;;;;5027111;28;20041;-66
2023/05/01 07:01:32;;;;;;;2.42;1.77;;;;;;;;;;5028677;28;20080;-66
2023/05/01 07:03:58;;;;;;;4.25;2.83;;;;;;;;;;5044279;28;20392;-62
2023/05/01 07:06:24;;;;;;;6.10;2.50;;;;;;;;;;5044809;28;20094;-64
2023/05/01 07:08:50;;;;;;;5.22;2.80;;;;;;;;;;5044990;28;20048;-66
2023/05/01 07:11:16;;;;;;;2.70;2.15;;;;;;;;;;5045443;28;20041;-64
2023/05/01 07:13:42;;;;;;;3.28;2.72;;;;;;;;;;5026946;28;20069;-67
2023/05/01 07:16:08;;;;;;;4.18;2.88;;;;;;;;;;5026891;28;20095;-67
2023/05/01 07:18:36;;;;;;;3.78;2.58;;;;;;;;;;5027615;28;20094;-67
2023/05/01 07:21:02;;;;;;;2.15;2.03;;;;;;;;;;5043975;28;20049;-67
2023/05/01 07:23:28;;;;;;;2.22;2.03;;;;;;;;;;5027525;28;20422;-67
2023/05/01 07:25:54;;;;;;;2.30;2.10;;;;;;;;;;5044991;28;20057;-67
2023/05/01 07:28:21;;;;;;;3.10;2.80;;;;;;;;;;5025788;28;20047;-67
2023/05/01 07:30:47;;;;;;;1.85;1.70;;;;;;;;;;5025676;28;20048;-67
2023/05/01 07:33:13;;;;;;;4.45;2.40;;;;;;;;;;5044103;28;20036;-66
2023/05/01 07:35:40;;;;;;;3.72;2.58;;;;;;;;;;5025384;28;20064;-67
2023/05/01 07:38:06;;;;;;;2.25;2.05;;;;;;;;;;5043898;28;20867;-67
2023/05/01 07:40:33;;;;;;;2.60;2.40;;;;;;;;;;5024824;28;20479;-67
2023/05/01 07:43:00;;;;;;;2.10;1.90;;;;;;;;;;5043853;28;20387;-67
2023/05/01 07:45:26;;;;;;;3.67;2.58;;;;;;;;;;5044392;28;20052;-67
2023/05/01 07:47:52;;;;;;;2.40;2.20;;;;;;;;;;5043525;28;20114;-67
2023/05/01 07:50:18;;;;;;;4.43;3.13;;;;;;;;;;5044702;28;20045;-67
2023/05/01 07:52:45;;;;;;;3.97;3.05;;;;;;;;;;5044555;28;20087;-67
2023/05/01 07:55:11;;;;;;;2.70;2.50;;;;;;;;;;5042411;28;20053;-67
2023/05/01 07:57:38;;;;;;;3.05;2.00;;;;;;;;;;5044399;28;20041;-66
2023/05/01 08:00:04;;;;;;;2.20;1.70;;;;;;;;;;5026715;28;20106;-66
2023/05/01 08:02:30;;;;;;;1.77;1.65;;;;;;;;;;5043125;28;20068;-66
2023/05/01 08:04:56;;;;;;;2.85;2.10;;;;;;;;;;5044419;28;20052;-67
2023/05/01 08:07:22;;;;;;;1.80;1.60;;;;;;;;;;5044716;28;20094;-66
2023/05/01 08:09:48;;;;;;;1.83;1.73;;;;;;;;;;5025822;28;20047;-67
2023/05/01 08:12:14;;;;;;;1.30;1.20;;;;;;;;;;5044076;28;20033;-67
2023/05/01 08:14:40;;;;;;;1.50;1.40;;;;;;;;;;5043077;28;20688;-68
2023/05/01 08:17:06;;;;;;;2.33;1.52;;;;;;;;;;5043614;28;20118;-67
2023/05/01 08:19:32;;;;;;;2.00;1.55;;;;;;;;;;5045079;28;20069;-67
2023/05/01 08:21:58;;;;;;;1.50;1.40;;;;;;;;;;5043860;28;20060;-67
2023/05/01 08:24:24;;;;;;;1.90;1.75;;;;;;;;;;5024934;28;20044;-67
2023/05/01 08:26:50;;;;;;;3.00;1.77;;;;;;;;;;5043863;28;20048;-68
2023/05/01 08:29:16;;;;;;;2.17;1.52;;;;;;;;;;5026195;28;20934;-67
2023/05/01 08:31:42;;;;;;;6.18;1.98;;;;;;;;;;5043563;28;20044;-68
2023/05/01 08:34:08;;;;;;;1.45;1.35;;;;;;;;;;5043826;28;20049;-67
2023/05/01 08:36:34;;;;;;;2.50;1.65;;;;;;;;;;5026831;28;20051;-67
2023/05/01 08:39:00;;;;;;;2.20;1.98;;;;;;;;;;5043366;28;20049;-67
2023/05/01 08:41:28;;;;;;;2.25;1.70;;;;;;;;;;5026404;28;20090;-67
2023/05/01 08:43:57;;;;;;;3.33;1.88;;;;;;;;;;5042371;28;20052;-67
2023/05/01 08:46:43;;;;;;;2.25;1.80;;;;;;;;;;5035637;28;20060;-67
2023/05/01 08:49:10;;;;;;;2.08;1.75;;;;;;;;;;5033535;28;20068;-69
2023/05/01 08:51:37;;;;;;;4.32;2.30;;;;;;;;;;5045640;28;20503;-69
2023/05/01 08:54:07;;;;;;;2.95;1.75;;;;;;;;;;5046301;28;20083;-69
2023/05/01 08:56:35;;;;;;;3.38;1.83;;;;;;;;;;5045856;28;20056;-68
2023/05/01 08:59:02;;;;;;;1.23;1.13;;;;;;;;;;5045568;28;20041;-68
2023/05/01 09:01:29;;;;;;;1.52;1.42;;;;;;;;;;5047682;28;20037;-68
2023/05/01 09:03:56;;;;;;;3.03;1.60;;;;;;;;;;5046126;28;20102;-70
2023/05/01 09:06:22;;;;;;;1.35;1.08;;;;;;;;;;5046058;28;20049;-68
2023/05/01 09:08:48;;;;;;;2.92;2.17;;;;;;;;;;5052451;28;20072;-68
2023/05/01 09:11:14;;;;;;;1.30;1.20;;;;;;;;;;5057824;28;20083;-69
2023/05/01 09:13:40;;;;;;;2.42;1.27;;;;;;;;;;5038451;28;20452;-68
2023/05/01 09:16:06;;;;;;;1.20;1.10;;;;;;;;;;5056270;28;20045;-69
2023/05/01 09:18:33;;;;;;;1.00;0.90;;;;;;;;;;5037865;28;20045;-68
2023/05/01 09:21:00;;;;;;;1.45;0.73;;;;;;;;;;5030518;28;20136;-68
2023/05/01 09:23:27;;;;;;;1.70;1.38;;;;;;;;;;5035710;28;20048;-68
2023/05/01 09:25:53;;;;;;;1.65;1.55;;;;;;;;;;5036593;28;20094;-68
2023/05/01 09:28:19;;;;;;;3.33;1.88;;;;;;;;;;5051542;28;20048;-68
2023/05/01 09:30:45;;;;;;;1.65;1.20;;;;;;;;;;5035294;28;20048;-69
2023/05/01 09:33:12;;;;;;;1.55;1.27;;;;;;;;;;5039248;28;20041;-71
2023/05/01 09:35:48;;;;;;;2.28;1.52;;;;;;;;;;5038364;28;20045;-68
2023/05/01 09:38:21;;;;;;;2.33;1.88;;;;;;;;;;5039052;28;20045;-69
2023/05/01 09:40:47;;;;;;;1.52;1.42;;;;;;;;;;5052555;28;20056;-66
2023/05/01 09:43:13;;;;;;;2.63;1.70;;;;;;;;;;5037534;28;20098;-67
2023/05/01 09:45:41;;;;;;;2.05;1.27;;;;;;;;;;5054606;28;20479;-66
2023/05/01 09:48:11;;;;;;;3.05;2.13;;;;;;;;;;5055955;28;20484;-66
2023/05/01 09:50:41;;;;;;;1.98;1.58;;;;;;;;;;5055784;28;20052;-66
2023/05/01 09:53:07;;;;;;;4.00;2.25;;;;;;;;;;5036866;28;20052;-66
2023/05/01 09:55:33;;;;;;;4.35;2.35;;;;;;;;;;5032553;28;20210;-66
2023/05/01 09:57:59;;;;;;;2.58;2.20;;;;;;;;;;5046703;28;20048;-66
2023/05/01 10:00:26;;;;;;;2.03;1.83;;;;;;;;;;5029696;28;20039;-66
2023/05/01 10:02:52;;;;;;;2.20;1.60;;;;;;;;;;5028282;28;20061;-66
2023/05/01 10:05:19;;;;;;;1.02;0.95;;;;;;;;;;5038756;28;20494;-66
2023/05/01 10:07:57;;;;;;;1.52;1.38;;;;;;;;;;5057375;28;20166;-66
2023/05/01 10:10:23;;;;;;;1.27;1.17;;;;;;;;;;5054578;28;20045;-66
2023/05/01 10:12:49;;;;;;;1.50;1.00;;;;;;;;;;5035256;28;20383;-66
2023/05/01 10:15:15;;;;;;;1.20;0.80;;;;;;;;;;5030678;28;20480;-66
2023/05/01 10:17:42;;;;;;;0.90;0.63;;;;;;;;;;5053923;28;20040;-67
2023/05/01 10:20:12;;;;;;;0.90;0.80;;;;;;;;;;5048291;28;20553;-66
2023/05/01 10:22:39;;;;;;;1.20;1.10;;;;;;;;;;5034667;28;20128;-67
2023/05/01 10:25:12;;;;;;;1.23;0.85;;;;;;;;;;5057091;28;20745;-66
2023/05/01 10:27:41;;;;;;;0.60;0.60;;;;;;;;;;5038146;28;20048;-66
2023/05/01 10:30:08;;;;;;;0.70;0.70;;;;;;;;;;5053303;28;20094;-66
2023/05/01 10:32:36;;;;;;;1.13;0.68;;;;;;;;;;5037645;28;20678;-66
2023/05/01 10:35:05;;;;;;;0.60;0.60;;;;;;;;;;5029881;28;20060;-66
2023/05/01 10:37:35;;;;;;;1.30;0.60;;;;;;;;;;5046188;28;20183;-67
2023/05/01 10:40:21;;;;;;;0.50;0.50;;;;;;;;;;5026961;28;20044;-67
2023/05/01 10:43:05;;;;;;;1.05;0.47;;;;;;;;;;5045445;28;20041;-68
2023/05/01 10:45:32;;;;;;;0.88;0.68;;;;;;;;;;5043148;28;20056;-67
2023/05/01 10:47:58;;;;;;;0.82;0.57;;;;;;;;;;5027525;28;20809;-68
2023/05/01 10:50:24;;;;;;;0.95;0.80;;;;;;;;;;5027309;28;20056;-67
2023/05/01 10:53:08;;;;;;;1.33;0.70;;;;;;;;;;5027198;28;20065;-68
2023/05/01 10:55:35;;;;;;;1.20;0.50;;;;;;;;;;5023350;28;20041;-67
2023/05/01 10:58:01;;;;;;;0.75;0.60;;;;;;;;;;5044602;28;20048;-67
2023/05/01 11:00:27;;;;;;;0.77;0.60;;;;;;;;;;5027383;28;20273;-67
2023/05/01 11:03:12;;;;;;;1.17;0.80;;;;;;;;;;5042532;28;20045;-67
2023/05/01 11:05:57;;;;;;;1.40;0.60;;;;;;;;;;5027398;28;20387;-68
2023/05/01 11:08:33;;;;;;;0.30;0.30;;;;;;;;;;5045853;28;20037;-67
2023/05/01 11:11:17;;;;;;;0.65;0.60;;;;;;;;;;5033379;28;20063;-67
2023/05/01 11:14:07;;;;;;;1.30;0.98;;;;;;;;;;5034869;28;20056;-67
2023/05/01 11:16:40;;;;;;;1.17;0.57;;;;;;;;;;5034355;28;20120;-67
2023/05/01 11:19:07;;;;;;;0.70;0.70;;;;;;;;;;5037865;28;20526;-68
2023/05/01 11:21:34;;;;;;;0.70;0.70;;;;;;;;;;5036030;28;20044;-67
2023/05/01 11:24:00;;;;;;;1.58;0.80;;;;;;;;;;5048295;28;20357;-68
2023/05/01 11:26:30;;;;;;;0.70;0.63;;;;;;;;;;5019309;28;20144;-68
2023/05/01 11:29:00;;;;;;;0.95;0.63;;;;;;;;;;5027519;28;20057;-68
2023/05/01 11:31:27;;;;;;;0.98;0.88;;;;;;;;;;5044128;28;20132;-68
2023/05/01 11:33:57;;;;;;;0.70;0.50;;;;;;;;;;5030645;28;20049;-68
2023/05/01 11:36:23;;;;;;;0.55;0.45;;;;;;;;;;5047806;28;20448;-68
2023/05/01 11:38:55;;;;;;;0.35;0.30;;;;;;;;;;5034546;28;20053;-68
2023/05/01 11:41:22;;;;;;;0.63;0.43;;;;;;;;;;5033294;28;20048;-69
2023/05/01 11:43:49;;;;;;;0.95;0.65;;;;;;;;;;5033899;28;20830;-68
2023/05/01 11:46:22;;;;;;;0.60;0.60;;;;;;;;;;5024736;28;20044;-69
2023/05/01 11:48:51;;;;;;;1.15;0.40;;;;;;;;;;5047912;28;20052;-70
2023/05/01 11:51:18;;;;;;;0.25;0.25;;;;;;;;;;5044292;28;20053;-68
2023/05/01 11:53:58;;;;;;;1.92;0.60;;;;;;;;;;5024708;28;20044;-68
2023/05/01 11:56:24;;;;;;;0.47;0.43;;;;;;;;;;5050768;28;20131;-68
2023/05/01 11:58:50;;;;;;;0.98;0.50;;;;;;;;;;5033260;28;20049;-68
2023/05/01 12:01:16;;;;;;;0.85;0.80;;;;;;;;;;5045174;28;20049;-69
2023/05/01 12:03:43;;;;;;;0.82;0.57;;;;;;;;;;5054719;28;20076;-68
2023/05/01 12:06:13;;;;;;;0.73;0.65;;;;;;;;;;5045315;28;20430;-69
2023/05/01 12:08:42;;;;;;;1.10;0.60;;;;;;;;;;5025189;28;20110;-68
2023/05/01 12:11:09;;;;;;;1.48;0.47;;;;;;;;;;5027736;28;20420;-68
2023/05/01 12:13:35;;;;;;;0.70;0.50;;;;;;;;;;5039249;28;20040;-67
2023/05/01 12:16:03;;;;;;;1.42;0.68;;;;;;;;;;5050971;28;20412;-69
2023/05/01 12:18:29;;;;;;;1.30;0.75;;;;;;;;;;5051481;28;20045;-69
2023/05/01 12:20:55;;;;;;;1.23;1.00;;;;;;;;;;5050743;28;20053;-69
2023/05/01 12:23:36;;;;;;;1.38;1.17;;;;;;;;;;5045917;28;20144;-68
2023/05/01 12:26:15;;;;;;;0.57;0.57;;;;;;;;;;5025237;28;20501;-68
2023/05/01 12:28:52;;;;;;;1.27;0.70;;;;;;;;;;5028225;28;20048;-68
2023/05/01 12:31:19;;;;;;;1.30;0.70;;;;;;;;;;5049264;28;20059;-68
2023/05/01 12:33:55;;;;;;;0.60;0.50;;;;;;;;;;5023039;28;20060;-68
2023/05/01 12:36:26;;;;;;;0.55;0.40;;;;;;;;;;5027420;28;20041;-68
2023/05/01 12:38:56;;;;;;;0.68;0.68;;;;;;;;;;5049732;28;20313;-68
2023/05/01 12:41:31;;;;;;;0.40;0.40;;;;;;;;;;5036767;28;20080;-68
2023/05/01 12:43:57;;;;;;;0.65;0.65;;;;;;;;;;5047914;28;20252;-68
2023/05/01 12:46:23;;;;;;;0.60;0.60;;;;;;;;;;5053453;28;20526;-67
2023/05/01 12:48:49;;;;;;;0.77;0.60;;;;;;;;;;5035579;28;20571;-68
2023/05/01 12:51:19;;;;;;;0.88;0.88;;;;;;;;;;5050869;28;20695;-68
2023/05/01 12:53:45;;;;;;;0.70;0.50;;;;;;;;;;5035030;28;20247;-68
2023/05/01 12:56:22;;;;;;;1.40;0.68;;;;;;;;;;5049313;28;20119;-68
2023/05/01 12:58:48;;;;;;;1.17;0.90;;;;;;;;;;5022325;28;20049;-68
2023/05/01 13:01:23;;;;;;;2.38;1.30;;;;;;;;;;5049261;28;20045;-68
2023/05/01 13:03:49;;;;;;;1.15;0.77;;;;;;;;;;5033409;28;20048;-68
2023/05/01 13:06:15;;;;;;;0.80;0.80;;;;;;;;;;5021050;28;20056;-68
2023/05/01 13:08:41;;;;;;;1.17;0.98;;;;;;;;;;5039850;28;20094;-67
2023/05/01 13:11:12;;;;;;;0.80;0.75;;;;;;;;;;5024820;28;20499;-67
2023/05/01 13:13:38;;;;;;;0.63;0.63;;;;;;;;;;5026055;28;20068;-67
2023/05/01 13:16:04;;;;;;;1.20;0.90;;;;;;;;;;5025312;28;20049;-67
2023/05/01 13:18:31;;;;;;;1.23;0.90;;;;;;;;;;5025880;28;20060;-67
2023/05/01 13:21:06;;;;;;;1.63;0.90;;;;;;;;;;5043241;28;20125;-68
2023/05/01 13:23:32;;;;;;;1.92;1.05;;;;;;;;;;5024102;28;20605;-68
2023/05/01 13:25:58;;;;;;;1.15;0.90;;;;;;;;;;5048141;28;20083;-68
2023/05/01 13:28:24;;;;;;;1.35;0.63;;;;;;;;;;5032013;28;20073;-68
2023/05/01 13:30:51;;;;;;;1.80;0.70;;;;;;;;;;5049794;28;20098;-68
2023/05/01 13:33:16;;;;;;;1.00;0.75;;;;;;;;;;5028684;28;20064;-68
2023/05/01 13:35:42;;;;;;;1.30;0.80;;;;;;;;;;5047770;28;20045;-68
2023/05/01 13:38:11;;;;;;;1.00;0.60;;;;;;;;;;5047399;28;20132;-68
2023/05/01 13:40:39;;;;;;;0.55;0.55;;;;;;;;;;5030213;28;20080;-67
2023/05/01 13:43:05;;;;;;;1.80;1.10;;;;;;;;;;5034693;28;20062;-67
2023/05/01 13:45:31;;;;;;;3.25;0.90;;;;;;;;;;5031244;28;20049;-67
2023/05/01 13:47:57;;;;;;;1.30;0.73;;;;;;;;;;5028500;28;20114;-67
2023/05/01 13:50:23;;;;;;;2.20;0.90;;;;;;;;;;5047252;28;20053;-67
2023/05/01 13:52:49;;;;;;;0.73;0.68;;;;;;;;;;5029006;28;20507;-66
2023/05/01 13:55:16;;;;;;;0.60;0.50;;;;;;;;;;5045271;28;20048;-66
2023/05/01 13:57:42;;;;;;;0.50;0.32;;;;;;;;;;5028658;28;20378;-65
2023/05/01 14:00:16;;;;;;;0.77;0.63;;;;;;;;;;5032509;28;20278;-65
2023/05/01 14:02:43;;;;;;;0.70;0.70;;;;;;;;;;5041480;28;20045;-66
2023/05/01 14:05:09;;;;;;;0.70;0.52;;;;;;;;;;5034588;28;20396;-65
2023/05/01 14:07:39;;;;;;;1.15;0.50;;;;;;;;;;5046821;28;20045;-64
2023/05/01 14:10:08;;;;;;;0.60;0.50;;;;;;;;;;5028583;28;20118;-65
2023/05/01 14:12:34;;;;;;;0.77;0.40;;;;;;;;;;5057345;28;20123;-64
2023/05/01 14:15:00;;;;;;;1.20;1.02;;;;;;;;;;5039027;28;20119;-64
2023/05/01 14:17:29;;;;;;;0.80;0.77;;;;;;;;;;5057501;28;20045;-64
2023/05/01 14:19:55;;;;;;;1.90;0.90;;;;;;;;;;5025679;28;20040;-64
2023/05/01 14:22:21;;;;;;;0.98;0.90;;;;;;;;;;5033410;28;20072;-64
2023/05/01 14:24:47;;;;;;;0.80;0.68;;;;;;;;;;5036388;28;20041;-65
2023/05/01 14:27:16;;;;;;;1.27;0.88;;;;;;;;;;5056038;28;20040;-65
2023/05/01 14:29:42;;;;;;;0.90;0.90;;;;;;;;;;5031152;28;20513;-65
2023/05/01 14:32:09;;;;;;;4.05;1.20;;;;;;;;;;5031301;28;20488;-65
2023/05/01 14:34:35;;;;;;;1.08;0.80;;;;;;;;;;5027948;28;20060;-65
2023/05/01 14:37:01;;;;;;;0.75;0.50;;;;;;;;;;5041316;28;20040;-65
2023/05/01 14:39:28;;;;;;;1.05;0.90;;;;;;;;;;5046031;28;20037;-65
2023/05/01 14:41:57;;;;;;;1.23;0.70;;;;;;;;;;5054217;28;20040;-65
2023/05/01 14:44:26;;;;;;;1.17;1.08;;;;;;;;;;5054158;28;20116;-64
2023/05/01 14:46:52;;;;;;;1.77;1.60;;;;;;;;;;5047085;28;20045;-65